Time;durP1;ratioP1;P1;durP2;ratioP2;P2;SDS_P1;SDS_P2;PMS_P1;PMS_P2;Temp;Humidity;BMP_temperature;BMP_pressure;BME280_temperature;BME280_humidity;BME280_pressure;Samples;Min_cycle;Max_cycle;Signal;HPM_P1;HPM_P2
2022/05/31 00:00:12;;;;;;;19.63;7.47;;;10.10;99.90;;;;;;5042756;28;20033;-62
2022/05/31 00:02:39;;;;;;;12.05;7.25;;;10.10;99.90;;;;;;5051075;28;20033;-62
2022/05/31 00:05:06;;;;;;;12.68;7.18;;;10.10;99.90;;;;;;5030411;28;20072;-63
2022/05/31 00:07:32;;;;;;;12.10;7.00;;;10.10;99.90;;;;;;5044212;28;20248;-62
2022/05/31 00:09:57;;;;;;;10.65;6.68;;;10.10;99.90;;;;;;5044175;28;20116;-63
2022/05/31 00:12:23;;;;;;;12.60;6.75;;;10.20;99.90;;;;;;5042013;28;20033;-63
2022/05/31 00:14:48;;;;;;;15.25;6.72;;;10.20;99.90;;;;;;5047439;28;20043;-63
2022/05/31 00:17:14;;;;;;;10.15;6.03;;;10.20;99.90;;;;;;5040115;28;20029;-63
2022/05/31 00:19:40;;;;;;;12.77;5.70;;;10.30;99.90;;;;;;5042409;28;20048;-63
2022/05/31 00:22:12;;;;;;;10.57;6.60;;;10.30;99.90;;;;;;5047683;28;20036;-62
2022/05/31 00:24:39;;;;;;;14.15;5.78;;;10.30;99.90;;;;;;5046443;28;20057;-63
2022/05/31 00:27:06;;;;;;;12.43;6.15;;;10.30;99.90;;;;;;5046276;28;20145;-63
2022/05/31 00:29:32;;;;;;;16.92;6.90;;;10.40;99.90;;;;;;5045998;28;20394;-62
2022/05/31 00:32:00;;;;;;;13.60;6.78;;;10.40;99.90;;;;;;5042929;28;20033;-63
2022/05/31 00:34:27;;;;;;;8.93;5.57;;;10.30;99.90;;;;;;5043445;28;20025;-63
2022/05/31 00:36:52;;;;;;;12.90;6.57;;;10.30;99.90;;;;;;5046633;28;20029;-62
2022/05/31 00:39:19;;;;;;;9.82;6.70;;;10.30;99.90;;;;;;5046571;28;20026;-63
2022/05/31 00:42:04;;;;;;;11.70;6.10;;;10.30;99.90;;;;;;5046944;28;20036;-63
2022/05/31 00:44:31;;;;;;;12.68;5.43;;;10.30;99.90;;;;;;5046041;28;20052;-63
2022/05/31 00:47:11;;;;;;;12.60;5.95;;;10.30;99.90;;;;;;5044910;28;20021;-63
2022/05/31 00:49:53;;;;;;;12.23;6.60;;;10.30;99.90;;;;;;5045643;28;20025;-63
2022/05/31 00:52:24;;;;;;;8.32;5.88;;;10.30;99.90;;;;;;5042824;28;20479;-63
2022/05/31 00:55:31;;;;;;;11.70;6.13;;;10.40;99.90;;;;;;5046367;28;20013;-63
2022/05/31 00:58:15;;;;;;;14.32;7.95;;;10.40;99.90;;;;;;5046050;28;20035;-63
2022/05/31 01:00:41;;;;;;;11.02;6.47;;;10.50;99.90;;;;;;5041897;28;20047;-63
2022/05/31 01:03:08;;;;;;;12.52;5.78;;;10.40;99.90;;;;;;5046844;28;20495;-63
2022/05/31 01:05:34;;;;;;;8.73;5.43;;;10.40;99.90;;;;;;5063914;22;20122;-60
2022/05/31 01:08:00;;;;;;;11.32;5.72;;;10.40;99.90;;;;;;5027299;28;20025;-60
2022/05/31 01:10:26;;;;;;;11.00;5.65;;;10.40;99.90;;;;;;5029557;28;20385;-61
2022/05/31 01:12:52;;;;;;;10.85;5.65;;;10.40;99.90;;;;;;5030474;28;20030;-60
2022/05/31 01:15:19;;;;;;;10.57;6.05;;;10.40;99.90;;;;;;5025719;28;20036;-58
2022/05/31 01:17:45;;;;;;;16.35;6.05;;;10.40;99.90;;;;;;5027511;28;20029;-60
2022/05/31 01:20:13;;;;;;;12.20;6.72;;;10.40;99.90;;;;;;5028580;28;20083;-57
2022/05/31 01:22:50;;;;;;;9.70;6.00;;;10.30;99.90;;;;;;5031930;28;20065;-59
2022/05/31 01:25:21;;;;;;;8.70;5.70;;;10.30;99.90;;;;;;5025426;28;20112;-59
2022/05/31 01:28:04;;;;;;;12.27;6.30;;;10.30;99.90;;;;;;5029429;28;20557;-61
2022/05/31 01:30:34;;;;;;;13.80;6.95;;;10.30;99.90;;;;;;5025713;28;20041;-59
2022/05/31 01:33:27;;;;;;;13.40;6.60;;;10.30;99.90;;;;;;5030024;28;20549;-59
2022/05/31 01:35:58;;;;;;;15.20;7.32;;;10.30;99.90;;;;;;5029605;28;20141;-61
2022/05/31 01:38:47;;;;;;;10.35;7.03;;;10.30;99.90;;;;;;5029410;28;20021;-61
2022/05/31 01:41:35;;;;;;;10.80;7.22;;;10.20;99.90;;;;;;5022832;28;20037;-61
2022/05/31 01:44:04;;;;;;;13.85;6.47;;;10.20;99.90;;;;;;5028202;28;20029;-60
2022/05/31 01:46:34;;;;;;;11.90;7.20;;;10.20;99.90;;;;;;5027291;28;20030;-60
2022/05/31 01:49:06;;;;;;;11.40;6.65;;;10.20;99.90;;;;;;5029433;28;20041;-60
2022/05/31 01:51:33;;;;;;;16.25;6.50;;;10.20;99.90;;;;;;5030210;28;20026;-62
2022/05/31 01:53:59;;;;;;;14.43;6.47;;;10.20;99.90;;;;;;5029628;28;20014;-62
2022/05/31 01:56:25;;;;;;;11.02;5.78;;;10.20;99.90;;;;;;5025345;28;20100;-62
2022/05/31 01:58:55;;;;;;;14.48;6.40;;;10.30;99.90;;;;;;5030199;28;20025;-60
2022/05/31 02:01:21;;;;;;;10.45;6.38;;;10.30;99.90;;;;;;5029987;28;20021;-61
2022/05/31 02:03:47;;;;;;;10.32;5.78;;;10.30;99.90;;;;;;5030318;28;20036;-60
2022/05/31 02:06:25;;;;;;;9.75;5.65;;;10.30;99.90;;;;;;5026492;28;20056;-62
2022/05/31 02:08:51;;;;;;;10.73;6.97;;;10.30;99.90;;;;;;5026955;28;20407;-61
2022/05/31 02:11:16;;;;;;;11.88;5.78;;;10.40;99.90;;;;;;5031427;28;20025;-60
2022/05/31 02:13:42;;;;;;;11.82;6.13;;;10.30;99.90;;;;;;5026010;28;20044;-59
2022/05/31 02:16:08;;;;;;;12.32;5.20;;;10.30;99.90;;;;;;5029460;28;20049;-61
2022/05/31 02:21:17;;;;;;;8.60;4.95;;;10.30;99.90;;;;;;5028605;28;20115;-60
2022/05/31 02:23:43;;;;;;;11.32;6.00;;;10.30;99.90;;;;;;5028996;28;20057;-59
2022/05/31 02:26:09;;;;;;;10.30;5.25;;;10.30;99.90;;;;;;5026979;28;20391;-59
2022/05/31 02:28:34;;;;;;;12.07;6.05;;;10.30;99.90;;;;;;5030029;28;20382;-59
2022/05/31 02:31:00;;;;;;;10.13;5.55;;;10.30;99.90;;;;;;5027015;28;20026;-59
2022/05/31 02:33:25;;;;;;;16.05;5.75;;;10.20;99.90;;;;;;5026512;28;20025;-60
2022/05/31 02:35:51;;;;;;;10.75;5.82;;;10.30;99.90;;;;;;5026687;28;20075;-59
2022/05/31 02:38:16;;;;;;;6.53;4.65;;;10.20;99.90;;;;;;5028575;28;20017;-60
2022/05/31 02:40:42;;;;;;;8.05;5.03;;;10.20;99.90;;;;;;5031988;28;20100;-60
2022/05/31 02:43:09;;;;;;;11.95;5.63;;;10.20;99.90;;;;;;5031270;28;20025;-59
2022/05/31 02:45:34;;;;;;;11.70;5.43;;;10.10;99.90;;;;;;5028083;28;20087;-59
2022/05/31 02:48:00;;;;;;;9.02;5.20;;;10.00;99.90;;;;;;5028453;28;20056;-60
2022/05/31 02:50:26;;;;;;;8.50;4.95;;;10.00;99.90;;;;;;5028233;28;20116;-58
2022/05/31 02:52:52;;;;;;;10.07;5.03;;;10.00;99.90;;;;;;5025393;28;20057;-59
2022/05/31 02:55:18;;;;;;;6.07;3.83;;;10.00;99.90;;;;;;5027218;28;20106;-59
2022/05/31 02:57:43;;;;;;;6.38;4.13;;;10.10;99.90;;;;;;5029711;28;20392;-60
2022/05/31 03:00:10;;;;;;;8.77;4.78;;;10.10;99.90;;;;;;5027201;28;20413;-60
2022/05/31 03:02:37;;;;;;;5.45;3.90;;;10.10;99.90;;;;;;5029438;28;20029;-60
2022/05/31 03:05:03;;;;;;;10.18;3.78;;;10.10;99.90;;;;;;5030298;28;20062;-60
2022/05/31 03:07:29;;;;;;;9.18;4.72;;;10.20;99.90;;;;;;5027389;28;20109;-58
2022/05/31 03:09:55;;;;;;;8.23;4.43;;;10.20;99.90;;;;;;5027437;28;20108;-57
2022/05/31 03:12:22;;;;;;;10.80;5.30;;;10.20;99.90;;;;;;5028261;28;20148;-59
2022/05/31 03:14:52;;;;;;;8.45;5.05;;;10.10;99.90;;;;;;5026628;28;20044;-59
2022/05/31 03:17:33;;;;;;;6.75;4.32;;;10.00;99.90;;;;;;5026157;28;20025;-61
2022/05/31 03:20:15;;;;;;;8.90;4.22;;;9.90;99.90;;;;;;5024266;28;20030;-59
2022/05/31 03:22:48;;;;;;;10.00;4.82;;;9.80;99.90;;;;;;5025162;28;20119;-59
2022/05/31 03:25:22;;;;;;;9.50;4.38;;;9.80;99.90;;;;;;5027598;28;20025;-60
2022/05/31 03:27:49;;;;;;;9.10;3.63;;;9.70;99.90;;;;;;5028164;28;20378;-61
2022/05/31 03:30:15;;;;;;;8.70;3.88;;;9.70;99.90;;;;;;5026134;28;20033;-61
2022/05/31 03:32:43;;;;;;;10.73;4.40;;;9.70;99.90;;;;;;5027689;28;20113;-58
2022/05/31 03:35:09;;;;;;;7.57;4.18;;;9.70;99.90;;;;;;5025928;28;20116;-60
2022/05/31 03:37:34;;;;;;;9.48;4.35;;;9.70;99.90;;;;;;5028219;28;20104;-61
2022/05/31 03:40:00;;;;;;;7.25;3.88;;;9.80;99.90;;;;;;5027176;28;20133;-59
2022/05/31 03:42:25;;;;;;;7.85;3.72;;;9.90;99.90;;;;;;5028911;28;20125;-59
2022/05/31 03:44:51;;;;;;;6.30;3.70;;;9.90;99.90;;;;;;5025802;28;20026;-60
2022/05/31 03:47:17;;;;;;;8.18;4.43;;;9.90;99.90;;;;;;5026440;28;20037;-57
2022/05/31 03:49:42;;;;;;;5.50;3.40;;;10.00;99.90;;;;;;5025191;28;20038;-60
2022/05/31 03:52:08;;;;;;;7.10;3.92;;;10.10;99.90;;;;;;5027245;28;20030;-60
2022/05/31 03:54:39;;;;;;;10.55;4.22;;;10.10;99.90;;;;;;5026640;28;20083;-60
2022/05/31 03:57:06;;;;;;;6.80;3.60;;;10.20;99.90;;;;;;5025801;28;20159;-59
2022/05/31 03:59:36;;;;;;;9.77;3.63;;;10.20;99.90;;;;;;5026980;28;20028;-60
2022/05/31 04:02:02;;;;;;;5.47;3.90;;;10.10;99.90;;;;;;5024201;28;20029;-58
2022/05/31 04:04:28;;;;;;;6.38;3.28;;;10.10;99.90;;;;;;5024279;28;20499;-61
2022/05/31 04:06:53;;;;;;;8.68;3.72;;;10.20;99.90;;;;;;5025874;28;20053;-59
2022/05/31 04:09:19;;;;;;;7.88;3.42;;;10.20;99.90;;;;;;5023574;28;20064;-58
2022/05/31 04:11:44;;;;;;;5.07;3.50;;;10.20;99.90;;;;;;5025878;28;20037;-61
2022/05/31 04:14:10;;;;;;;4.65;3.15;;;10.30;99.90;;;;;;5027569;28;20487;-59
2022/05/31 04:16:35;;;;;;;5.30;3.05;;;10.30;99.90;;;;;;5027269;28;20553;-62
2022/05/31 04:19:01;;;;;;;9.23;3.60;;;10.40;99.90;;;;;;5027076;28;20075;-61
2022/05/31 04:21:27;;;;;;;6.95;3.40;;;10.40;99.90;;;;;;5021185;28;20071;-59
2022/05/31 04:23:58;;;;;;;6.05;3.33;;;10.40;99.90;;;;;;5028590;28;20029;-57
2022/05/31 04:26:26;;;;;;;5.75;3.30;;;10.50;99.90;;;;;;5025503;28;20021;-59
2022/05/31 04:28:52;;;;;;;4.18;3.03;;;10.50;99.90;;;;;;5027567;28;20555;-59
2022/05/31 04:31:17;;;;;;;6.60;2.72;;;10.50;99.90;;;;;;5023906;28;20040;-59
2022/05/31 04:33:43;;;;;;;6.40;2.90;;;10.60;99.90;;;;;;5025911;28;20021;-60
2022/05/31 04:36:12;;;;;;;6.57;3.35;;;10.70;99.90;;;;;;5026528;28;20044;-60
2022/05/31 04:38:38;;;;;;;7.95;3.78;;;10.70;99.90;;;;;;5026686;28;20036;-62
2022/05/31 04:41:04;;;;;;;10.02;3.00;;;10.70;99.90;;;;;;5024192;28;20030;-61
2022/05/31 04:43:31;;;;;;;4.80;3.20;;;10.70;99.90;;;;;;5025251;28;20037;-61
2022/05/31 04:45:57;;;;;;;9.77;3.03;;;10.60;99.90;;;;;;5020213;28;20053;-62
2022/05/31 04:48:23;;;;;;;7.75;2.92;;;10.60;99.90;;;;;;5025414;28;20025;-62
2022/05/31 04:50:48;;;;;;;7.28;2.80;;;10.50;99.90;;;;;;5026554;28;20167;-60
2022/05/31 04:53:14;;;;;;;5.40;3.45;;;10.50;99.90;;;;;;5025085;28;20048;-63
2022/05/31 04:55:43;;;;;;;8.32;3.05;;;10.50;99.90;;;;;;5025996;28;20495;-60
2022/05/31 04:58:09;;;;;;;4.63;2.92;;;10.50;99.90;;;;;;5025394;28;20044;-60
2022/05/31 05:00:34;;;;;;;9.98;3.67;;;10.60;99.90;;;;;;5026138;28;20567;-62
2022/05/31 05:03:00;;;;;;;9.02;3.22;;;10.60;99.90;;;;;;5024012;28;20029;-59
2022/05/31 05:05:26;;;;;;;4.15;2.72;;;10.60;99.90;;;;;;5025704;28;20057;-60
2022/05/31 05:07:51;;;;;;;4.45;2.80;;;10.70;99.90;;;;;;5022821;28;20498;-59
2022/05/31 05:10:17;;;;;;;3.47;2.53;;;10.70;99.90;;;;;;5020099;28;20581;-60
2022/05/31 05:12:43;;;;;;;5.78;2.30;;;10.70;99.90;;;;;;5027601;28;20103;-61
2022/05/31 05:15:08;;;;;;;5.97;3.15;;;10.80;99.90;;;;;;5026954;28;20032;-61
2022/05/31 05:17:34;;;;;;;7.53;2.90;;;10.80;99.90;;;;;;5025077;28;20065;-52
2022/05/31 05:20:00;;;;;;;3.58;3.08;;;10.90;99.90;;;;;;5028608;28;20044;-55
2022/05/31 05:22:27;;;;;;;5.65;3.00;;;10.90;99.90;;;;;;5026983;28;20029;-54
2022/05/31 05:24:53;;;;;;;7.65;2.65;;;11.00;99.90;;;;;;5024050;28;20364;-53
2022/05/31 05:27:18;;;;;;;7.93;2.92;;;11.10;99.90;;;;;;5027536;28;20100;-51
2022/05/31 05:32:28;;;;;;;5.45;2.70;;;11.20;99.90;;;;;;5025714;28;20032;-53
2022/05/31 05:34:54;;;;;;;8.00;2.75;;;11.20;99.90;;;;;;5024399;28;20029;-50
2022/05/31 05:37:23;;;;;;;3.22;2.15;;;11.20;99.90;;;;;;5023796;28;20071;-52
2022/05/31 05:39:49;;;;;;;6.60;2.42;;;11.30;99.90;;;;;;5021886;28;20035;-52
2022/05/31 05:42:16;;;;;;;8.02;2.78;;;11.40;99.90;;;;;;5026052;28;20041;-52
2022/05/31 05:44:42;;;;;;;9.75;2.88;;;11.40;99.90;;;;;;5021667;28;20022;-51
2022/05/31 05:47:09;;;;;;;4.10;2.28;;;11.50;99.90;;;;;;5025009;28;20063;-51
2022/05/31 05:49:36;;;;;;;3.58;2.25;;;11.60;99.90;;;;;;5028097;28;20030;-52
2022/05/31 05:52:04;;;;;;;8.82;1.88;;;11.60;99.90;;;;;;5030083;28;20021;-52
2022/05/31 05:54:30;;;;;;;5.93;2.20;;;11.70;99.90;;;;;;5026401;28;20022;-50
2022/05/31 05:56:55;;;;;;;5.38;2.22;;;11.80;99.90;;;;;;5025149;28;20026;-50
2022/05/31 05:59:21;;;;;;;3.67;2.25;;;11.90;99.90;;;;;;5026602;28;20395;-51
2022/05/31 06:01:55;;;;;;;3.05;2.10;;;11.90;99.90;;;;;;5019615;28;20982;-51
2022/05/31 06:04:35;;;;;;;5.32;2.10;;;12.00;99.90;;;;;;5024025;28;20033;-55
2022/05/31 06:07:08;;;;;;;4.88;2.05;;;12.10;99.90;;;;;;5029627;28;20029;-55
2022/05/31 06:09:35;;;;;;;5.30;3.03;;;12.10;99.90;;;;;;5028927;28;20120;-54
2022/05/31 06:12:21;;;;;;;5.10;2.10;;;12.10;99.90;;;;;;5028378;28;20049;-54
2022/05/31 06:14:56;;;;;;;8.57;3.20;;;12.10;99.90;;;;;;5024382;28;20101;-54
2022/05/31 06:17:33;;;;;;;4.47;2.03;;;12.20;99.90;;;;;;5029157;28;20032;-53
2022/05/31 06:20:03;;;;;;;6.28;2.47;;;12.30;99.90;;;;;;5030523;28;20426;-52
2022/05/31 06:22:29;;;;;;;4.53;2.15;;;12.40;99.90;;;;;;5029679;28;20384;-48
2022/05/31 06:24:57;;;;;;;4.47;1.98;;;12.50;99.90;;;;;;5027902;28;20041;-54
2022/05/31 06:27:23;;;;;;;5.57;1.95;;;12.60;99.90;;;;;;5030396;28;20395;-54
2022/05/31 06:29:49;;;;;;;4.38;1.92;;;12.70;99.90;;;;;;5031055;28;20029;-49
2022/05/31 06:32:16;;;;;;;7.45;2.38;;;12.60;99.90;;;;;;5029690;28;20036;-54
2022/05/31 06:34:41;;;;;;;3.05;2.03;;;12.60;99.90;;;;;;5031865;28;20360;-52
2022/05/31 06:37:10;;;;;;;1.92;1.63;;;12.70;99.90;;;;;;5028748;28;20021;-52
2022/05/31 06:39:36;;;;;;;4.38;2.40;;;12.80;99.90;;;;;;5030203;28;20395;-54
2022/05/31 06:42:03;;;;;;;5.13;2.97;;;12.90;99.90;;;;;;5029680;28;20034;-52
2022/05/31 06:44:31;;;;;;;6.47;2.40;;;12.90;99.90;;;;;;5030263;28;20771;-55
2022/05/31 06:46:57;;;;;;;5.05;2.22;;;13.10;99.90;;;;;;5026677;28;20098;-53
2022/05/31 06:49:22;;;;;;;8.60;3.13;;;13.20;99.90;;;;;;5022221;28;20491;-54
2022/05/31 06:57:35;;;;;;;8.07;2.60;;;13.40;99.90;;;;;;5027450;28;20063;-59
2022/05/31 07:00:02;;;;;;;7.70;2.95;;;13.40;99.90;;;;;;5028242;28;20029;-59
2022/05/31 07:02:28;;;;;;;10.30;2.40;;;13.40;99.90;;;;;;5025384;28;20030;-60
2022/05/31 07:04:54;;;;;;;3.08;1.88;;;13.50;99.90;;;;;;5024711;28;20037;-59
2022/05/31 07:07:20;;;;;;;4.03;2.03;;;13.50;99.90;;;;;;5029054;28;20040;-59
2022/05/31 07:09:46;;;;;;;8.82;2.05;;;13.50;99.90;;;;;;5028803;28;20040;-59
2022/05/31 07:12:12;;;;;;;7.60;2.33;;;13.40;99.90;;;;;;5027532;28;20055;-56
2022/05/31 07:14:37;;;;;;;6.35;2.50;;;13.40;99.90;;;;;;5026596;28;20391;-59
2022/05/31 07:17:04;;;;;;;4.68;1.90;;;13.40;99.90;;;;;;5025233;28;20038;-59
2022/05/31 07:19:29;;;;;;;5.65;2.13;;;13.40;99.90;;;;;;5029249;28;20041;-59
2022/05/31 07:21:59;;;;;;;9.15;2.70;;;13.50;99.90;;;;;;5030740;28;20022;-60
2022/05/31 07:24:25;;;;;;;3.25;1.88;;;13.40;99.90;;;;;;5030566;28;20025;-60
2022/05/31 07:26:51;;;;;;;3.75;1.92;;;13.60;99.90;;;;;;5030490;28;20549;-60
2022/05/31 07:29:17;;;;;;;4.13;2.20;;;13.60;99.90;;;;;;5027908;28;20033;-58
2022/05/31 07:31:44;;;;;;;4.18;2.17;;;13.60;99.90;;;;;;5025105;28;20025;-58
2022/05/31 07:34:11;;;;;;;6.43;1.83;;;13.70;99.90;;;;;;5029405;28;20068;-59
2022/05/31 07:36:38;;;;;;;5.40;2.20;;;13.70;99.90;;;;;;5030517;28;20373;-62
2022/05/31 07:39:05;;;;;;;6.63;2.45;;;13.70;99.90;;;;;;5029957;28;20021;-59
2022/05/31 07:41:32;;;;;;;4.18;1.85;;;13.70;99.90;;;;;;5031073;28;20108;-59
2022/05/31 07:43:58;;;;;;;7.72;2.33;;;13.70;99.90;;;;;;5025718;28;20032;-59
2022/05/31 07:46:24;;;;;;;6.28;2.70;;;13.70;99.90;;;;;;5026410;28;20030;-59
2022/05/31 07:48:50;;;;;;;4.07;1.85;;;13.70;99.90;;;;;;5028222;28;20385;-59
2022/05/31 07:51:16;;;;;;;8.80;2.13;;;13.60;99.90;;;;;;5025456;28;20503;-59
2022/05/31 07:53:41;;;;;;;9.13;1.88;;;13.50;99.90;;;;;;5029807;28;20033;-59
2022/05/31 07:56:07;;;;;;;9.45;2.40;;;13.50;99.90;;;;;;5025273;28;20764;-59
2022/05/31 07:58:37;;;;;;;4.28;2.42;;;13.40;99.90;;;;;;5030427;28;20021;-55
2022/05/31 08:01:08;;;;;;;5.55;2.90;;;13.40;99.90;;;;;;5030457;28;20033;-57
2022/05/31 08:03:35;;;;;;;5.97;2.40;;;13.30;99.90;;;;;;5031910;28;20100;-59
2022/05/31 08:06:06;;;;;;;6.05;2.35;;;13.10;99.90;;;;;;5034963;28;20541;-58
2022/05/31 08:08:32;;;;;;;10.60;2.88;;;12.90;99.90;;;;;;5030047;28;20029;-59
2022/05/31 08:11:01;;;;;;;12.40;2.80;;;12.70;99.90;;;;;;5029791;28;20484;-58
2022/05/31 08:13:26;;;;;;;6.90;2.80;;;12.60;99.90;;;;;;5025823;28;20049;-58
2022/05/31 08:15:52;;;;;;;9.93;2.83;;;12.50;99.90;;;;;;5025509;28;20033;-58
2022/05/31 08:18:18;;;;;;;7.75;3.33;;;12.50;99.90;;;;;;5032370;28;20095;-60
2022/05/31 08:20:43;;;;;;;5.03;2.72;;;12.50;99.90;;;;;;5032540;28;20037;-59
2022/05/31 08:23:08;;;;;;;8.13;2.50;;;12.50;99.90;;;;;;5028576;28;20523;-59
2022/05/31 08:25:36;;;;;;;9.13;2.60;;;12.50;99.90;;;;;;5028935;28;20025;-58
2022/05/31 08:28:01;;;;;;;6.20;3.13;;;12.60;99.90;;;;;;5024263;28;20025;-59
2022/05/31 08:30:28;;;;;;;7.05;2.55;;;12.70;99.90;;;;;;5029444;28;20528;-56
2022/05/31 08:32:54;;;;;;;7.28;3.08;;;12.70;99.90;;;;;;5028996;28;20035;-59
2022/05/31 08:35:19;;;;;;;6.15;3.53;;;12.70;99.90;;;;;;5025102;28;20021;-59
2022/05/31 08:37:45;;;;;;;4.43;2.42;;;12.80;99.90;;;;;;5028041;28;20038;-58
2022/05/31 08:40:11;;;;;;;5.05;3.03;;;12.90;99.90;;;;;;5029790;28;20064;-56
2022/05/31 08:42:57;;;;;;;11.23;3.40;;;12.90;99.90;;;;;;5028843;28;20107;-58
2022/05/31 08:45:31;;;;;;;2.97;2.33;;;12.80;99.90;;;;;;5028711;28;20025;-59
2022/05/31 08:48:08;;;;;;;7.82;3.42;;;12.90;99.90;;;;;;5026855;28;20036;-59
2022/05/31 08:53:34;;;;;;;7.22;2.13;;;12.90;99.90;;;;;;5029043;28;20033;-60
2022/05/31 08:59:25;;;;;;;5.95;3.38;;;12.70;99.90;;;;;;5025888;28;20036;-57
2022/05/31 09:01:56;;;;;;;7.55;3.38;;;12.70;99.90;;;;;;5022480;28;20529;-58
2022/05/31 09:04:41;;;;;;;6.55;3.50;;;12.70;99.90;;;;;;5029201;28;20403;-60
2022/05/31 09:07:17;;;;;;;7.07;3.75;;;12.80;99.90;;;;;;5027354;28;20024;-59
2022/05/31 09:10:04;;;;;;;10.10;3.95;;;12.80;99.90;;;;;;5026224;28;20040;-59
2022/05/31 09:12:51;;;;;;;8.32;3.53;;;12.80;99.90;;;;;;5023321;28;20032;-55
2022/05/31 09:15:20;;;;;;;9.52;4.03;;;12.90;99.90;;;;;;5026306;28;20495;-58
2022/05/31 09:17:57;;;;;;;7.43;3.78;;;13.00;99.90;;;;;;5029714;28;20039;-59
2022/05/31 09:20:58;;;;;;;6.60;3.45;;;13.10;99.90;;;;;;5029062;28;20037;-60
2022/05/31 09:23:33;;;;;;;7.03;3.45;;;13.30;99.90;;;;;;5025157;28;20112;-59
2022/05/31 09:26:08;;;;;;;13.15;3.00;;;13.50;99.90;;;;;;5026059;28;20404;-60
2022/05/31 09:29:00;;;;;;;5.15;3.78;;;13.80;99.90;;;;;;5025685;28;20030;-58
2022/05/31 09:31:51;;;;;;;5.10;2.85;;;14.10;99.90;;;;;;5022507;28;20048;-60
2022/05/31 09:34:22;;;;;;;7.43;2.60;;;14.20;99.90;;;;;;5024291;28;20026;-58
2022/05/31 09:37:11;;;;;;;9.77;3.30;;;14.50;99.90;;;;;;5025279;28;20026;-60
2022/05/31 09:40:02;;;;;;;8.88;3.25;;;14.30;99.90;;;;;;5021403;28;20475;-59
2022/05/31 09:42:37;;;;;;;5.82;2.40;;;14.30;99.90;;;;;;5030948;28;20044;-59
2022/05/31 09:45:07;;;;;;;8.63;3.22;;;14.40;99.90;;;;;;5033311;28;20068;-60
2022/05/31 09:47:33;;;;;;;5.18;2.83;;;14.80;99.90;;;;;;5030780;28;20120;-59
2022/05/31 09:49:59;;;;;;;6.68;2.42;;;15.20;99.90;;;;;;5030625;28;20108;-58
2022/05/31 09:52:38;;;;;;;8.35;2.75;;;15.30;99.90;;;;;;5031332;28;20506;-57
2022/05/31 09:58:06;;;;;;;9.68;2.88;;;15.90;99.90;;;;;;5025293;28;20538;-61
2022/05/31 10:00:31;;;;;;;5.20;2.88;;;15.90;99.90;;;;;;5027751;28;20103;-59
2022/05/31 10:03:04;;;;;;;4.00;2.58;;;15.90;99.90;;;;;;5031906;28;20072;-58
2022/05/31 10:05:29;;;;;;;5.10;2.97;;;16.20;99.90;;;;;;5024981;28;20160;-59
2022/05/31 10:07:55;;;;;;;7.55;2.85;;;16.80;99.90;;;;;;5028117;28;20172;-59
2022/05/31 10:10:34;;;;;;;4.78;2.95;;;17.10;99.90;;;;;;5029525;28;20403;-59
2022/05/31 10:13:04;;;;;;;5.72;2.30;;;17.20;99.90;;;;;;5029666;28;20025;-59
2022/05/31 10:15:44;;;;;;;5.75;2.75;;;17.00;99.90;;;;;;5031345;28;20446;-59
2022/05/31 10:18:25;;;;;;;4.43;2.55;;;17.00;99.90;;;;;;5031652;28;20391;-55
2022/05/31 10:21:11;;;;;;;8.30;2.88;;;16.90;99.90;;;;;;5031262;28;20025;-59
2022/05/31 10:23:44;;;;;;;4.30;2.58;;;16.80;99.90;;;;;;5029169;28;20041;-59
2022/05/31 10:26:27;;;;;;;3.58;2.40;;;16.90;99.90;;;;;;5031815;28;20036;-59
2022/05/31 10:28:57;;;;;;;3.22;2.42;;;17.20;99.90;;;;;;5028475;28;20030;-58
2022/05/31 10:31:37;;;;;;;4.03;2.60;;;17.40;99.90;;;;;;5027173;28;20021;-58
2022/05/31 10:34:24;;;;;;;4.50;2.33;;;17.80;99.90;;;;;;5030483;28;20029;-58
2022/05/31 10:36:55;;;;;;;3.78;2.33;;;18.40;99.90;;;;;;5017652;28;20030;-59
2022/05/31 10:39:24;;;;;;;4.05;2.20;;;18.60;99.90;;;;;;5026759;28;20131;-56
2022/05/31 10:41:53;;;;;;;3.70;2.30;;;18.60;99.90;;;;;;5032546;28;20038;-60
2022/05/31 10:44:41;;;;;;;4.10;2.28;;;18.50;99.90;;;;;;5032133;28;20079;-58
2022/05/31 10:47:13;;;;;;;6.55;2.58;;;17.90;99.90;;;;;;5032477;28;20033;-59
2022/05/31 10:49:40;;;;;;;5.20;2.08;;;17.60;99.90;;;;;;5031704;28;20033;-58
2022/05/31 10:52:30;;;;;;;3.25;1.90;;;17.50;99.90;;;;;;5032760;28;20032;-58
2022/05/31 10:55:14;;;;;;;3.47;2.08;;;17.60;99.90;;;;;;5030289;28;20056;-57
2022/05/31 10:58:16;;;;;;;3.63;1.98;;;17.60;99.90;;;;;;5032484;28;20117;-58
2022/05/31 11:00:51;;;;;;;5.45;2.13;;;17.60;99.90;;;;;;5032603;28;20037;-59
2022/05/31 11:03:39;;;;;;;3.30;1.90;;;17.60;99.90;;;;;;5024835;28;20025;-58
2022/05/31 11:06:25;;;;;;;3.95;2.42;;;17.60;99.90;;;;;;5030375;28;20116;-59
2022/05/31 11:12:06;;;;;;;7.30;2.17;;;17.90;99.90;;;;;;5023611;28;20068;-57
2022/05/31 11:15:02;;;;;;;4.35;2.30;;;18.20;99.90;;;;;;5031913;28;20034;-58
2022/05/31 11:17:49;;;;;;;6.55;2.05;;;17.70;99.90;;;;;;5031442;28;20029;-60
2022/05/31 11:20:18;;;;;;;3.20;2.25;;;17.90;99.90;;;;;;5032186;28;20080;-58
2022/05/31 11:23:09;;;;;;;3.63;2.05;;;17.90;99.90;;;;;;5029579;28;20049;-58
2022/05/31 11:25:53;;;;;;;4.78;1.90;;;17.70;99.90;;;;;;5022370;28;20030;-54
2022/05/31 11:28:56;;;;;;;4.55;2.42;;;17.90;99.90;;;;;;5027669;28;20509;-57
2022/05/31 11:31:52;;;;;;;7.22;2.15;;;17.70;99.90;;;;;;5025845;28;20051;-58
2022/05/31 11:34:34;;;;;;;4.32;2.40;;;17.70;99.90;;;;;;5029539;28;20021;-60
2022/05/31 11:37:33;;;;;;;3.75;2.17;;;18.10;99.90;;;;;;5032364;28;20045;-55
2022/05/31 11:40:11;;;;;;;5.32;1.83;;;18.20;99.90;;;;;;5027916;28;20083;-59
2022/05/31 11:43:03;;;;;;;4.32;2.03;;;18.80;99.90;;;;;;5029883;28;20029;-58
2022/05/31 11:45:35;;;;;;;4.68;2.03;;;19.20;99.90;;;;;;5025974;28;20029;-59
2022/05/31 11:48:20;;;;;;;4.03;1.98;;;19.50;99.90;;;;;;5026692;28;20060;-58
2022/05/31 11:50:57;;;;;;;4.40;2.08;;;19.80;99.90;;;;;;5029278;28;20091;-59
2022/05/31 11:53:56;;;;;;;3.50;2.28;;;19.70;99.90;;;;;;5030857;28;20503;-52
2022/05/31 11:56:47;;;;;;;4.45;1.95;;;20.00;99.90;;;;;;5030631;28;20491;-58
2022/05/31 11:59:18;;;;;;;7.30;2.53;;;19.70;99.90;;;;;;5029352;28;20105;-55
2022/05/31 12:02:12;;;;;;;5.45;2.22;;;19.60;99.90;;;;;;5030945;28;20033;-58
2022/05/31 12:04:47;;;;;;;3.92;2.03;;;18.60;99.90;;;;;;5031992;28;20026;-59
2022/05/31 12:07:24;;;;;;;3.80;1.98;;;18.60;99.90;;;;;;5030204;28;20033;-58
2022/05/31 12:10:03;;;;;;;3.90;1.92;;;18.50;99.90;;;;;;5030742;28;20025;-59
2022/05/31 12:12:31;;;;;;;3.67;2.08;;;18.50;99.90;;;;;;5030443;28;20069;-58
2022/05/31 12:15:22;;;;;;;3.55;1.77;;;18.60;99.90;;;;;;5031673;28;20026;-56
2022/05/31 12:18:14;;;;;;;4.78;2.17;;;18.60;99.90;;;;;;5031012;28;20029;-58
2022/05/31 12:20:48;;;;;;;2.90;1.65;;;18.50;99.90;;;;;;5031653;28;20026;-57
2022/05/31 12:23:28;;;;;;;5.15;2.03;;;18.70;99.90;;;;;;5029594;28;20440;-60
2022/05/31 12:25:58;;;;;;;3.00;1.70;;;19.10;99.90;;;;;;5030954;28;20112;-58
2022/05/31 12:28:30;;;;;;;4.25;1.83;;;19.00;99.90;;;;;;5029093;28;20033;-59
2022/05/31 12:31:04;;;;;;;2.60;1.80;;;19.10;99.90;;;;;;5029065;28;20037;-59
2022/05/31 12:33:39;;;;;;;3.10;1.50;;;19.20;99.90;;;;;;5030688;28;20032;-58
2022/05/31 12:36:09;;;;;;;3.47;1.75;;;19.20;99.90;;;;;;5030173;28;20049;-58
2022/05/31 12:38:53;;;;;;;3.28;2.42;;;19.20;99.90;;;;;;5030785;28;20025;-59
2022/05/31 12:41:42;;;;;;;4.03;1.88;;;19.00;99.90;;;;;;5028334;28;20075;-59
2022/05/31 12:44:11;;;;;;;3.10;1.80;;;19.20;99.90;;;;;;5030973;28;20487;-60
2022/05/31 12:46:46;;;;;;;2.72;1.73;;;19.10;99.90;;;;;;5023645;28;20111;-60
2022/05/31 12:49:19;;;;;;;3.95;1.90;;;19.40;99.90;;;;;;5031251;28;20025;-60
2022/05/31 12:52:11;;;;;;;2.60;1.85;;;19.30;99.90;;;;;;5029346;28;20021;-58
2022/05/31 12:54:46;;;;;;;2.72;1.50;;;19.20;99.90;;;;;;5026981;28;20026;-59
2022/05/31 13:00:33;;;;;;;4.35;1.35;;;19.40;99.90;;;;;;5028056;28;20029;-58
2022/05/31 13:03:05;;;;;;;2.78;1.63;;;19.60;99.90;;;;;;5029451;28;20031;-59
2022/05/31 13:05:37;;;;;;;5.28;1.77;;;19.90;99.90;;;;;;5030275;28;20033;-59
2022/05/31 13:08:10;;;;;;;2.80;1.40;;;19.80;99.90;;;;;;5085609;22;20055;-60
2022/05/31 13:10:38;;;;;;;2.65;1.52;;;20.30;99.90;;;;;;5062334;28;20033;-63
2022/05/31 13:21:30;;;;;;;7.03;1.65;;;20.70;99.90;;;;;;5053024;28;20059;-55
2022/05/31 13:24:02;;;;;;;3.00;1.70;;;21.10;99.90;;;;;;5052738;28;20451;-58
2022/05/31 13:26:33;;;;;;;4.90;1.73;;;21.20;99.90;;;;;;5049935;28;20017;-57
2022/05/31 13:29:07;;;;;;;5.40;1.25;;;21.10;99.90;;;;;;5053388;28;20037;-60
2022/05/31 13:31:50;;;;;;;2.78;1.45;;;21.70;99.90;;;;;;5052192;28;20422;-59
2022/05/31 13:34:27;;;;;;;4.47;1.70;;;21.80;99.90;;;;;;5050413;28;20108;-56
2022/05/31 13:36:52;;;;;;;3.08;1.52;;;21.50;99.90;;;;;;5048573;28;20029;-59
2022/05/31 13:39:19;;;;;;;2.13;1.48;;;21.50;99.90;;;;;;5053559;28;20032;-55
2022/05/31 13:41:50;;;;;;;1.67;1.40;;;21.70;99.90;;;;;;5051537;28;20127;-57